createdAt,value
2022-09-04T00:01:50.878Z,18.30
2022-09-04T00:04:30.527Z,18.40
2022-09-04T00:07:12.400Z,18.30
2022-09-04T00:09:50.686Z,18.30
2022-09-04T00:12:26.853Z,18.30
2022-09-04T00:15:03.178Z,18.30
2022-09-04T00:17:37.935Z,18.30
2022-09-04T00:20:13.448Z,18.30
2022-09-04T00:22:53.393Z,18.30
2022-09-04T00:25:26.930Z,18.20
2022-09-04T00:28:04.875Z,18.20
2022-09-04T00:30:35.756Z,18.10
2022-09-04T00:33:10.171Z,18.10
2022-09-04T00:35:41.056Z,18.00
2022-09-04T00:38:14.633Z,17.90
2022-09-04T00:40:48.367Z,17.80
2022-09-04T00:43:49.204Z,17.90
2022-09-04T00:46:39.371Z,17.90
2022-09-04T00:49:24.135Z,17.90
2022-09-04T00:52:01.664Z,17.80
2022-09-04T00:54:45.325Z,17.80
2022-09-04T00:57:43.254Z,17.80
2022-09-04T01:00:16.140Z,17.80
2022-09-04T01:03:11.287Z,17.80
2022-09-04T01:05:55.899Z,17.90
2022-09-04T01:08:35.082Z,17.80
2022-09-04T01:11:14.344Z,17.90
2022-09-04T01:13:50.587Z,17.80
2022-09-04T01:16:26.616Z,17.80
2022-09-04T01:18:58.627Z,17.80
2022-09-04T01:21:55.901Z,17.80
2022-09-04T01:24:47.371Z,17.80
2022-09-04T01:27:23.670Z,17.70
2022-09-04T01:30:06.968Z,17.70
2022-09-04T01:32:44.927Z,17.70
2022-09-04T01:35:23.492Z,17.70
2022-09-04T01:38:00.650Z,17.70
2022-09-04T01:40:39.375Z,17.80
2022-09-04T01:43:12.454Z,17.70
2022-09-04T01:46:19.123Z,17.70
2022-09-04T01:48:51.602Z,17.60
2022-09-04T01:51:34.071Z,17.60
2022-09-04T01:58:37.611Z,17.40
2022-09-04T02:18:49.287Z,17.20
2022-09-04T03:01:06.060Z,16.90
2022-09-04T03:03:58.487Z,17.00
2022-09-04T03:35:45.752Z,17.90
2022-09-04T03:38:23.066Z,17.90
2022-09-04T03:45:03.292Z,18.00
2022-09-04T03:51:12.424Z,18.00
2022-09-04T03:53:45.231Z,18.10
2022-09-04T03:56:52.022Z,18.10
2022-09-04T04:16:31.259Z,18.10
2022-09-04T04:24:17.405Z,18.00
2022-09-04T04:44:50.516Z,17.40
2022-09-04T04:47:34.948Z,17.30
2022-09-04T05:03:07.507Z,17.10
2022-09-04T05:06:10.954Z,17.00
2022-09-04T05:42:29.188Z,16.90
2022-09-04T05:45:02.434Z,16.90
2022-09-04T05:47:48.160Z,17.00
2022-09-04T05:50:41.235Z,17.00
2022-09-04T05:53:33.940Z,17.00
2022-09-04T05:56:27.799Z,17.10
2022-09-04T05:59:12.544Z,17.10
2022-09-04T06:02:04.062Z,17.20
2022-09-04T06:04:56.494Z,17.30
2022-09-04T06:07:32.390Z,17.30
2022-09-04T06:10:08.606Z,17.40
2022-09-04T06:13:13.474Z,17.50
2022-09-04T06:15:54.794Z,17.50
2022-09-04T06:18:50.340Z,17.70
2022-09-04T06:21:56.517Z,17.80
2022-09-04T06:24:40.372Z,17.90
2022-09-04T06:27:24.012Z,18.10
2022-09-04T06:30:09.861Z,18.20
2022-09-04T06:33:06.171Z,18.30
2022-09-04T06:35:54.812Z,18.50
2022-09-04T06:38:41.497Z,18.60
2022-09-04T06:41:28.815Z,18.80
2022-09-04T06:44:05.447Z,18.90
2022-09-04T06:46:41.306Z,19.10
2022-09-04T06:49:18.968Z,19.20
2022-09-04T06:52:06.077Z,19.40
2022-09-04T06:54:50.200Z,19.50
2022-09-04T06:57:39.561Z,19.60
2022-09-04T07:00:10.730Z,19.80
2022-09-04T07:03:14.718Z,19.80
2022-09-04T07:05:53.840Z,20.00
2022-09-04T07:08:38.306Z,20.20
2022-09-04T07:11:20.167Z,20.30
2022-09-04T07:14:16.933Z,20.40
2022-09-04T07:16:55.590Z,20.60
2022-09-04T07:19:57.516Z,20.80
2022-09-04T07:22:54.891Z,20.90
2022-09-04T07:25:28.206Z,21.10
2022-09-04T07:28:14.075Z,21.30
2022-09-04T07:30:46.995Z,21.40
2022-09-04T07:33:22.095Z,21.60
2022-09-04T07:35:58.123Z,21.80
2022-09-04T07:38:37.767Z,22.00
2022-09-04T07:41:13.010Z,22.10
2022-09-04T07:43:54.590Z,22.30
2022-09-04T07:46:33.595Z,22.30
2022-09-04T07:49:09.994Z,22.50
2022-09-04T07:51:45.080Z,22.60
2022-09-04T07:54:30.560Z,22.70
2022-09-04T07:57:26.226Z,22.80
2022-09-04T08:00:07.790Z,23.00
2022-09-04T08:03:25.647Z,23.20
2022-09-04T08:06:01.338Z,23.30
2022-09-04T08:08:51.052Z,23.40
2022-09-04T08:11:48.452Z,23.50
2022-09-04T08:14:28.689Z,23.70
2022-09-04T08:17:24.516Z,23.80
2022-09-04T08:20:02.308Z,23.90
2022-09-04T08:22:39.123Z,24.00
2022-09-04T08:25:23.796Z,24.10
2022-09-04T08:28:07.687Z,24.20
2022-09-04T08:30:44.569Z,24.30
2022-09-04T08:33:46.250Z,24.40
2022-09-04T08:36:24.695Z,24.50
2022-09-04T08:39:07.603Z,24.60
2022-09-04T08:42:11.583Z,24.60
2022-09-04T08:45:42.296Z,24.70
2022-09-04T08:48:56.979Z,24.80
2022-09-04T08:51:57.088Z,24.90
2022-09-04T08:54:45.257Z,24.90
2022-09-04T08:57:40.443Z,25.00
2022-09-04T09:00:13.255Z,25.10
2022-09-04T09:03:29.630Z,25.10
2022-09-04T09:06:17.351Z,25.10
2022-09-04T09:09:30.161Z,25.20
2022-09-04T09:12:45.853Z,25.30
2022-09-04T09:15:36.611Z,25.40
2022-09-04T09:18:18.100Z,25.50
2022-09-04T09:34:14.735Z,25.80
2022-09-04T09:37:03.396Z,25.90
2022-09-04T09:40:10.608Z,25.90
2022-09-04T09:43:13.131Z,25.90
2022-09-04T09:45:58.088Z,26.10
2022-09-04T09:48:59.787Z,26.20
2022-09-04T09:52:15.730Z,26.30
2022-09-04T09:55:12.157Z,26.40
2022-09-04T09:58:21.559Z,26.50
2022-09-04T10:01:08.616Z,26.50
2022-09-04T10:04:11.797Z,26.40
2022-09-04T10:07:21.192Z,26.50
2022-09-04T10:10:09.252Z,26.60
2022-09-04T10:13:22.553Z,26.50
2022-09-04T10:16:28.156Z,26.60
2022-09-04T10:19:20.744Z,26.70
2022-09-04T10:22:32.318Z,26.90
2022-09-04T10:25:50.181Z,27.00
2022-09-04T10:28:42.175Z,27.20
2022-09-04T10:31:39.582Z,27.30
2022-09-04T10:34:24.079Z,27.30
2022-09-04T10:37:07.979Z,27.30
2022-09-04T10:40:04.898Z,27.30
2022-09-04T10:42:45.411Z,27.40
2022-09-04T10:45:27.243Z,27.50
2022-09-04T10:48:28.448Z,27.50
2022-09-04T10:51:25.453Z,27.70
2022-09-04T10:54:33.672Z,27.70
2022-09-04T10:57:18.469Z,27.70
2022-09-04T11:00:07.984Z,27.80
2022-09-04T11:03:06.257Z,27.80
2022-09-04T11:06:37.684Z,27.80
2022-09-04T11:09:28.344Z,27.80
2022-09-04T11:12:18.993Z,27.70
2022-09-04T11:15:04.321Z,27.80
2022-09-04T11:18:00.508Z,27.90
2022-09-04T11:21:12.472Z,27.90
2022-09-04T11:24:10.071Z,28.00
2022-09-04T11:27:13.688Z,28.20
2022-09-04T11:30:02.264Z,28.20
2022-09-04T11:32:58.708Z,28.40
2022-09-04T11:36:35.286Z,28.40
2022-09-04T11:39:30.512Z,28.20
2022-09-04T11:42:32.958Z,28.30
2022-09-04T11:45:29.075Z,28.30
2022-09-04T11:48:24.350Z,28.40
2022-09-04T11:51:10.932Z,28.50
2022-09-04T11:54:09.314Z,28.60
2022-09-04T11:56:54.419Z,28.60
2022-09-04T11:59:40.803Z,28.70
2022-09-04T12:02:38.514Z,28.70
2022-09-04T12:05:24.837Z,28.80
2022-09-04T12:08:16.605Z,28.90
2022-09-04T12:10:59.649Z,29.00
2022-09-04T12:14:02.052Z,28.90
2022-09-04T12:17:15.306Z,28.90
2022-09-04T12:20:15.032Z,28.90
2022-09-04T12:23:24.148Z,28.90
2022-09-04T12:26:28.183Z,28.90
2022-09-04T12:29:43.137Z,29.00
2022-09-04T12:32:38.027Z,29.20
2022-09-04T12:35:43.875Z,29.30
2022-09-04T12:38:55.899Z,29.30
2022-09-04T12:41:33.128Z,29.40
2022-09-04T12:44:11.703Z,29.40
2022-09-04T12:46:55.938Z,29.50
2022-09-04T12:50:10.369Z,29.50
2022-09-04T12:52:51.942Z,29.70
2022-09-04T12:55:33.562Z,29.60
2022-09-04T12:58:13.453Z,29.80
2022-09-04T13:00:53.562Z,29.80
2022-09-04T13:03:30.787Z,29.90
2022-09-04T13:06:20.423Z,30.00
2022-09-04T13:09:00.616Z,29.90
2022-09-04T13:11:42.049Z,29.90
2022-09-04T13:14:31.124Z,29.90
2022-09-04T13:17:06.131Z,29.80
2022-09-04T13:19:45.960Z,29.80
2022-09-04T13:22:28.612Z,30.00
2022-09-04T13:25:13.269Z,30.00
2022-09-04T13:27:53.252Z,30.20
2022-09-04T13:30:24.483Z,30.20
2022-09-04T13:33:24.319Z,30.30
2022-09-04T13:36:01.709Z,30.50
2022-09-04T13:39:06.711Z,30.70
2022-09-04T13:41:58.179Z,30.60
2022-09-04T13:44:56.723Z,30.60
2022-09-04T13:47:32.406Z,30.80
2022-09-04T13:50:09.885Z,30.70
2022-09-04T13:52:44.449Z,30.60
2022-09-04T13:55:19.102Z,30.50
2022-09-04T13:57:57.501Z,30.60
2022-09-04T14:00:26.882Z,30.70
2022-09-04T14:03:03.686Z,30.60
2022-09-04T14:05:34.549Z,30.50
2022-09-04T14:08:08.720Z,30.40
2022-09-04T14:10:56.925Z,30.40
2022-09-04T14:13:38.129Z,30.30
2022-09-04T14:16:11.576Z,30.40
2022-09-04T14:19:00.240Z,30.50
2022-09-04T14:21:42.687Z,30.60
2022-09-04T14:24:17.883Z,30.70
2022-09-04T14:26:54.164Z,30.70
2022-09-04T14:29:36.101Z,30.80
2022-09-04T14:32:18.684Z,30.80
2022-09-04T14:35:02.292Z,30.90
2022-09-04T14:37:52.060Z,30.90
2022-09-04T14:40:23.298Z,30.90
2022-09-04T14:42:58.244Z,31.00
2022-09-04T14:46:07.125Z,31.10
2022-09-04T14:48:40.599Z,31.10
2022-09-04T14:51:34.136Z,31.20
2022-09-04T14:54:04.001Z,31.30
2022-09-04T14:56:37.627Z,31.40
2022-09-04T14:59:16.418Z,31.50
2022-09-04T15:02:14.747Z,31.50
2022-09-04T15:04:48.879Z,31.50
2022-09-04T15:07:40.223Z,31.40
2022-09-04T15:10:15.528Z,31.50
2022-09-04T15:12:50.940Z,31.50
2022-09-04T15:15:24.009Z,31.40
2022-09-04T15:18:00.912Z,31.40
2022-09-04T15:20:32.603Z,31.40
2022-09-04T15:23:05.933Z,31.20
2022-09-04T15:26:01.692Z,31.10
2022-09-04T15:28:38.460Z,30.80
2022-09-04T15:31:15.976Z,30.70
2022-09-04T15:33:48.754Z,30.70
2022-09-04T15:36:21.339Z,30.80
2022-09-04T15:38:53.406Z,30.80
2022-09-04T15:41:35.546Z,30.80
2022-09-04T15:44:15.946Z,30.70
2022-09-04T15:46:51.165Z,30.80
2022-09-04T15:49:32.308Z,30.70
2022-09-04T15:52:19.896Z,30.70
2022-09-04T15:55:22.096Z,30.70
2022-09-04T15:58:04.671Z,30.70
2022-09-04T16:00:38.551Z,30.70
2022-09-04T16:03:17.441Z,30.60
2022-09-04T16:05:52.620Z,30.60
2022-09-04T16:08:28.045Z,30.60
2022-09-04T16:11:02.871Z,30.40
2022-09-04T16:13:41.424Z,30.30
2022-09-04T16:16:13.627Z,30.10
2022-09-04T16:18:51.867Z,30.10
2022-09-04T16:21:32.869Z,29.90
2022-09-04T16:24:09.129Z,29.70
2022-09-04T16:26:39.304Z,29.60
2022-09-04T16:29:15.439Z,29.50
2022-09-04T16:31:53.229Z,29.40
2022-09-04T16:34:25.080Z,29.20
2022-09-04T16:37:01.934Z,29.10
2022-09-04T16:39:39.569Z,29.00
2022-09-04T16:42:18.909Z,28.90
2022-09-04T16:44:51.035Z,28.80
2022-09-04T16:47:24.469Z,28.80
2022-09-04T16:50:00.637Z,28.70
2022-09-04T16:52:46.065Z,28.70
2022-09-04T16:55:24.675Z,28.60
2022-09-04T16:58:17.724Z,28.50
2022-09-04T17:01:12.837Z,28.40
2022-09-04T17:03:51.414Z,28.40
2022-09-04T17:06:27.922Z,28.20
2022-09-04T17:09:06.533Z,28.10
2022-09-04T17:11:52.541Z,28.00
2022-09-04T17:14:30.383Z,28.00
2022-09-04T17:17:12.494Z,27.90
2022-09-04T17:20:03.775Z,27.70
2022-09-04T17:28:55.313Z,27.70
2022-09-04T17:29:00.225Z,27.60
2022-09-04T17:29:17.726Z,27.60
2022-09-04T17:31:27.521Z,27.50
2022-09-04T17:40:41.220Z,27.10
2022-09-04T17:40:41.349Z,27.40
2022-09-04T17:40:47.148Z,27.30
2022-09-04T17:43:14.826Z,26.90
2022-09-04T17:45:45.977Z,26.70
2022-09-04T17:48:24.081Z,26.60
2022-09-04T17:50:55.755Z,26.40
2022-09-04T17:53:33.453Z,26.20
2022-09-04T17:56:09.220Z,26.10
2022-09-04T17:58:43.738Z,25.90
2022-09-04T18:01:19.943Z,25.80
2022-09-04T18:04:20.010Z,25.60
2022-09-04T18:06:54.020Z,25.40
2022-09-04T18:09:27.747Z,25.20
2022-09-04T18:12:05.888Z,25.10
2022-09-04T18:14:42.456Z,24.90
2022-09-04T18:17:17.325Z,24.80
2022-09-04T18:19:47.569Z,24.60
2022-09-04T18:22:33.243Z,24.50
2022-09-04T18:25:16.526Z,24.30
2022-09-04T18:28:06.601Z,24.20
2022-09-04T18:37:08.730Z,24.10
2022-09-04T18:37:16.258Z,23.90
2022-09-04T18:37:22.867Z,23.70
2022-09-04T18:40:06.658Z,23.50
2022-09-04T18:50:20.529Z,23.40
2022-09-04T18:50:44.120Z,23.20
2022-09-04T18:50:51.327Z,23.10
2022-09-04T18:51:31.287Z,23.00
2022-09-04T18:54:08.364Z,22.80
2022-09-04T18:56:43.672Z,22.70
2022-09-04T18:59:18.943Z,22.60
2022-09-04T19:01:56.365Z,22.50
2022-09-04T19:04:46.974Z,22.40
2022-09-04T19:07:27.351Z,22.30
2022-09-04T19:10:12.650Z,22.30
2022-09-04T19:12:53.719Z,22.10
2022-09-04T19:15:37.657Z,21.90
2022-09-04T19:18:14.352Z,21.80
2022-09-04T19:20:48.774Z,21.80
2022-09-04T19:23:27.244Z,21.70
2022-09-04T19:26:00.131Z,21.60
2022-09-04T19:28:45.699Z,21.50
2022-09-04T19:31:30.260Z,21.40
2022-09-04T19:34:02.914Z,21.30
2022-09-04T19:36:40.328Z,21.20
2022-09-04T19:45:56.722Z,21.20
2022-09-04T19:46:00.357Z,21.10
2022-09-04T19:46:16.658Z,21.10
2022-09-04T19:48:18.949Z,21.00
2022-09-04T19:53:18.762Z,20.80
2022-09-04T19:53:50.157Z,20.80
2022-09-04T19:56:28.501Z,20.70
2022-09-04T19:59:01.678Z,20.50
2022-09-04T20:01:39.961Z,20.40
2022-09-04T20:04:20.172Z,20.40
2022-09-04T20:06:51.816Z,20.30
2022-09-04T20:09:27.588Z,20.20
2022-09-04T20:12:00.081Z,20.20
2022-09-04T20:14:32.756Z,20.10
2022-09-04T20:17:17.367Z,20.10
2022-09-04T20:19:49.275Z,20.10
2022-09-04T20:22:31.360Z,20.10
2022-09-04T20:25:18.224Z,20.00
2022-09-04T20:27:50.625Z,20.00
2022-09-04T20:30:22.170Z,19.90
2022-09-04T20:32:56.677Z,19.90
2022-09-04T20:35:35.163Z,19.70
2022-09-04T20:38:22.850Z,19.70
2022-09-04T20:40:59.399Z,19.60
2022-09-04T20:43:40.379Z,19.60
2022-09-04T20:48:12.615Z,19.50
2022-09-04T20:52:48.762Z,19.40
2022-09-04T20:52:51.377Z,19.50
2022-09-04T20:55:28.169Z,19.40
2022-09-04T21:03:07.292Z,19.30
2022-09-04T21:03:13.968Z,19.30
2022-09-04T21:04:40.380Z,19.20
2022-09-04T21:07:18.379Z,19.10
2022-09-04T21:09:58.061Z,19.10
2022-09-04T21:12:34.399Z,19.00
2022-09-04T21:15:11.581Z,19.00
2022-09-04T21:17:58.333Z,19.00
2022-09-04T21:20:59.943Z,18.90
2022-09-04T21:23:59.621Z,18.90
2022-09-04T21:26:50.339Z,18.80
2022-09-04T21:29:52.388Z,18.70
2022-09-04T21:32:31.493Z,18.70
2022-09-04T21:35:10.739Z,18.70
2022-09-04T21:37:47.661Z,18.60
2022-09-04T21:40:51.710Z,18.50
2022-09-04T21:43:53.452Z,18.50
2022-09-04T21:46:58.587Z,18.50
2022-09-04T21:50:14.355Z,18.40
2022-09-04T21:52:59.610Z,18.30
2022-09-04T22:01:45.025Z,18.30
2022-09-04T22:02:35.693Z,18.20
2022-09-04T22:02:37.438Z,18.20
2022-09-04T22:05:02.902Z,18.20
2022-09-04T22:12:06.372Z,18.10
2022-09-04T22:13:28.701Z,18.10
2022-09-04T22:13:49.126Z,18.10
2022-09-04T22:16:31.542Z,18.00
2022-09-04T22:19:33.656Z,17.90
2022-09-04T22:22:20.555Z,17.80
2022-09-04T22:25:24.691Z,17.70
2022-09-04T22:28:15.185Z,17.70
2022-09-04T22:31:13.117Z,17.70
2022-09-04T22:34:19.668Z,17.60
2022-09-04T22:37:29.431Z,17.60
2022-09-04T22:40:18.296Z,17.50
2022-09-04T22:42:51.485Z,17.60
2022-09-04T22:45:46.783Z,17.50
2022-09-04T22:48:44.130Z,17.40
2022-09-04T22:51:34.073Z,17.40
2022-09-04T22:54:24.292Z,17.30
2022-09-04T22:56:59.171Z,17.30
2022-09-04T22:59:57.970Z,17.30
2022-09-04T23:03:08.280Z,17.20
2022-09-04T23:05:54.215Z,17.10
2022-09-04T23:13:47.317Z,17.00
2022-09-04T23:14:02.932Z,17.10
2022-09-04T23:15:08.385Z,16.90
2022-09-04T23:18:53.041Z,16.80
2022-09-04T23:26:33.793Z,16.80
2022-09-04T23:26:44.828Z,16.70
2022-09-04T23:27:28.477Z,16.70
2022-09-04T23:30:26.465Z,16.70
2022-09-04T23:33:38.335Z,16.60
2022-09-04T23:36:36.771Z,16.50
2022-09-04T23:39:46.286Z,16.50
2022-09-04T23:42:37.239Z,16.40
2022-09-04T23:45:48.647Z,16.40
2022-09-04T23:48:53.860Z,16.30
2022-09-04T23:51:31.181Z,16.30
2022-09-04T23:54:25.188Z,16.30
2022-09-04T23:57:00.521Z,16.30
2022-09-04T23:59:50.390Z,16.30
